createdAt,value
2017-12-25T00:00:26.055Z,0
2017-12-25T00:01:28.769Z,0
2017-12-25T00:02:31.470Z,0
2017-12-25T00:03:33.895Z,0
2017-12-25T00:04:36.320Z,0
2017-12-25T00:05:38.740Z,0
2017-12-25T00:06:41.157Z,0
2017-12-25T00:07:43.588Z,0
2017-12-25T00:08:46.300Z,0
2017-12-25T00:09:49.022Z,0
2017-12-25T00:10:51.427Z,0
2017-12-25T00:11:54.128Z,0
2017-12-25T00:12:56.546Z,0
2017-12-25T00:13:58.957Z,0
2017-12-25T00:15:01.379Z,0
2017-12-25T00:16:04.089Z,0
2017-12-25T00:17:06.787Z,0
2017-12-25T00:18:09.215Z,0
2017-12-25T00:19:11.623Z,0
2017-12-25T00:20:14.037Z,0
2017-12-25T00:21:16.461Z,0
2017-12-25T00:22:18.876Z,0
2017-12-25T00:23:21.292Z,0
2017-12-25T00:24:23.718Z,0
2017-12-25T00:25:26.140Z,0
2017-12-25T00:26:28.861Z,0
2017-12-25T00:27:31.287Z,0
2017-12-25T00:28:33.688Z,0
2017-12-25T00:29:36.120Z,0
2017-12-25T00:30:38.531Z,0
2017-12-25T00:31:40.942Z,0
2017-12-25T00:32:43.358Z,0
2017-12-25T00:33:45.781Z,0
2017-12-25T00:34:48.196Z,0
2017-12-25T00:35:50.619Z,0
2017-12-25T00:36:53.028Z,0
2017-12-25T00:37:55.440Z,0
2017-12-25T00:38:57.860Z,0
2017-12-25T00:40:00.554Z,0
2017-12-25T00:41:02.970Z,0
2017-12-25T00:42:05.696Z,0
2017-12-25T00:43:08.100Z,0
2017-12-25T00:44:10.808Z,0
2017-12-25T00:45:13.224Z,0
2017-12-25T00:46:15.933Z,0
2017-12-25T00:47:18.346Z,0
2017-12-25T00:48:20.765Z,0
2017-12-25T00:49:23.186Z,0
2017-12-25T00:50:25.611Z,0
2017-12-25T00:51:28.316Z,0
2017-12-25T00:52:30.716Z,0
2017-12-25T00:53:33.134Z,0
2017-12-25T00:54:35.557Z,0
2017-12-25T00:55:38.295Z,0
2017-12-25T00:56:40.709Z,0
2017-12-25T00:57:43.119Z,0
2017-12-25T00:58:45.538Z,0
2017-12-25T00:59:47.966Z,0
2017-12-25T01:00:50.387Z,0
2017-12-25T01:01:52.799Z,0
2017-12-25T01:02:55.220Z,0
2017-12-25T01:03:57.645Z,0
2017-12-25T01:05:00.057Z,0
2017-12-25T01:06:02.467Z,0
2017-12-25T01:07:04.897Z,0
2017-12-25T01:08:07.314Z,0
2017-12-25T01:09:09.721Z,0
2017-12-25T01:10:12.139Z,0
2017-12-25T01:11:14.559Z,0
2017-12-25T01:12:16.972Z,0
2017-12-25T01:13:19.393Z,0
2017-12-25T01:14:21.800Z,0
2017-12-25T01:15:24.216Z,0
2017-12-25T01:16:26.644Z,0
2017-12-25T01:17:29.323Z,0
2017-12-25T01:18:31.749Z,0
2017-12-25T01:19:34.155Z,0
2017-12-25T01:20:36.904Z,0
2017-12-25T01:21:39.893Z,0
2017-12-25T01:22:42.309Z,0
2017-12-25T01:23:44.719Z,0
2017-12-25T01:24:47.147Z,0
2017-12-25T01:25:49.560Z,0
2017-12-25T01:26:51.981Z,0
2017-12-25T01:27:54.406Z,0
2017-12-25T01:28:56.818Z,0
2017-12-25T01:29:59.522Z,0
2017-12-25T01:31:01.943Z,0
2017-12-25T01:32:04.366Z,0
2017-12-25T01:33:06.774Z,0
2017-12-25T01:34:09.190Z,0
2017-12-25T01:35:11.610Z,0
2017-12-25T01:36:14.033Z,0
2017-12-25T01:37:16.443Z,0
2017-12-25T01:38:18.864Z,0
2017-12-25T01:39:21.275Z,0
2017-12-25T01:40:23.707Z,0
2017-12-25T01:41:26.123Z,0
2017-12-25T01:42:28.532Z,0
2017-12-25T01:43:30.948Z,0
2017-12-25T01:44:33.361Z,0
2017-12-25T01:45:35.777Z,0
2017-12-25T01:46:38.185Z,0
2017-12-25T01:47:40.606Z,0
2017-12-25T01:48:43.017Z,0
2017-12-25T01:49:45.441Z,0
2017-12-25T01:50:47.852Z,0
2017-12-25T01:51:50.262Z,0
2017-12-25T01:52:52.679Z,0
2017-12-25T01:53:55.099Z,0
2017-12-25T01:54:57.524Z,0
2017-12-25T01:55:59.941Z,0
2017-12-25T01:57:02.359Z,0
2017-12-25T01:58:04.780Z,0
2017-12-25T01:59:07.195Z,0
2017-12-25T02:00:09.620Z,0
2017-12-25T02:01:12.022Z,0
2017-12-25T02:02:14.438Z,0
2017-12-25T02:03:16.851Z,0
2017-12-25T02:04:19.259Z,0
2017-12-25T02:05:21.675Z,0
2017-12-25T02:06:24.097Z,0
2017-12-25T02:07:26.798Z,0
2017-12-25T02:08:29.499Z,0
2017-12-25T02:09:31.912Z,0
2017-12-25T02:10:34.336Z,0
2017-12-25T02:11:36.750Z,0
2017-12-25T02:12:39.173Z,0
2017-12-25T02:13:41.573Z,0
2017-12-25T02:14:43.995Z,0
2017-12-25T02:15:46.414Z,0
2017-12-25T02:16:48.824Z,0
2017-12-25T02:17:51.526Z,0
2017-12-25T02:18:53.939Z,0
2017-12-25T02:19:56.643Z,0
2017-12-25T02:20:59.336Z,0
2017-12-25T02:22:02.040Z,0
2017-12-25T02:23:04.448Z,0
2017-12-25T02:24:06.870Z,0
2017-12-25T02:25:09.561Z,0
2017-12-25T02:26:11.976Z,0
2017-12-25T02:27:14.390Z,0
2017-12-25T02:28:16.796Z,0
2017-12-25T02:29:19.494Z,0
2017-12-25T02:30:21.912Z,0
2017-12-25T02:31:24.329Z,0
2017-12-25T02:32:27.031Z,0
2017-12-25T02:33:29.455Z,0
2017-12-25T02:34:31.866Z,0
2017-12-25T02:35:34.871Z,0
2017-12-25T02:36:37.568Z,0
2017-12-25T02:37:39.993Z,0
2017-12-25T02:38:42.406Z,0
2017-12-25T02:39:44.816Z,0
2017-12-25T02:40:47.236Z,0
2017-12-25T02:41:49.656Z,0
2017-12-25T02:42:52.065Z,0
2017-12-25T02:43:54.488Z,0
2017-12-25T02:44:57.186Z,0
2017-12-25T02:45:59.606Z,0
2017-12-25T02:47:02.319Z,0
2017-12-25T02:48:04.730Z,0
2017-12-25T02:49:07.148Z,0
2017-12-25T02:50:09.561Z,0
2017-12-25T02:51:12.247Z,0
2017-12-25T02:52:14.666Z,0
2017-12-25T02:53:17.079Z,0
2017-12-25T02:54:19.491Z,0
2017-12-25T02:55:21.915Z,0
2017-12-25T02:56:24.324Z,0
2017-12-25T02:57:26.737Z,0
2017-12-25T02:58:29.474Z,0
2017-12-25T02:59:31.884Z,0
2017-12-25T03:00:34.610Z,0
2017-12-25T03:01:37.029Z,0
2017-12-25T03:02:39.472Z,0
2017-12-25T03:03:41.884Z,0
2017-12-25T03:04:44.296Z,0
2017-12-25T03:05:46.718Z,0
2017-12-25T03:06:49.128Z,0
2017-12-25T03:07:51.549Z,0
2017-12-25T03:08:54.244Z,0
2017-12-25T03:09:56.659Z,0
2017-12-25T03:10:59.094Z,0
2017-12-25T03:12:01.517Z,0
2017-12-25T03:13:03.925Z,0
2017-12-25T03:14:06.338Z,0
2017-12-25T03:15:09.040Z,0
2017-12-25T03:16:11.739Z,0
2017-12-25T03:17:14.157Z,0
2017-12-25T03:18:16.569Z,0
2017-12-25T03:19:18.988Z,0
2017-12-25T03:20:21.467Z,0
2017-12-25T03:21:24.242Z,0
2017-12-25T03:22:26.935Z,0
2017-12-25T03:23:29.689Z,0
2017-12-25T03:24:32.099Z,0
2017-12-25T03:25:34.516Z,0
2017-12-25T03:26:36.932Z,0
2017-12-25T03:27:39.348Z,0
2017-12-25T03:28:41.756Z,0
2017-12-25T03:29:44.464Z,0
2017-12-25T03:30:46.877Z,0
2017-12-25T03:31:49.583Z,0
2017-12-25T03:32:52.316Z,0
2017-12-25T03:33:54.724Z,0
2017-12-25T03:34:57.503Z,0
2017-12-25T03:35:59.907Z,0
2017-12-25T03:37:02.407Z,0
2017-12-25T03:38:04.810Z,0
2017-12-25T03:39:07.238Z,0
2017-12-25T03:40:09.645Z,0
2017-12-25T03:41:12.146Z,0
2017-12-25T03:42:14.563Z,0
2017-12-25T03:43:16.975Z,0
2017-12-25T03:44:19.483Z,0
2017-12-25T03:45:21.897Z,0
2017-12-25T03:46:24.349Z,0
2017-12-25T03:47:26.766Z,0
2017-12-25T03:48:29.197Z,0
2017-12-25T03:49:31.611Z,0
2017-12-25T03:50:34.022Z,0
2017-12-25T03:51:37.104Z,0
2017-12-25T03:52:39.515Z,0
2017-12-25T03:53:41.937Z,0
2017-12-25T03:54:44.368Z,0
2017-12-25T03:55:46.771Z,0
2017-12-25T03:56:49.192Z,0
2017-12-25T03:57:51.606Z,0
2017-12-25T03:58:54.025Z,0
2017-12-25T03:59:56.446Z,0
2017-12-25T04:00:58.874Z,0
2017-12-25T04:02:01.291Z,0
2017-12-25T04:03:03.695Z,0
2017-12-25T04:04:06.116Z,0
2017-12-25T04:05:08.541Z,0
2017-12-25T04:06:10.953Z,0
2017-12-25T04:07:13.653Z,0
2017-12-25T04:08:16.064Z,0
2017-12-25T04:09:18.473Z,0
2017-12-25T04:10:20.901Z,0
2017-12-25T04:11:23.595Z,0
2017-12-25T04:12:26.281Z,0
2017-12-25T04:13:28.981Z,0
2017-12-25T04:14:31.685Z,0
2017-12-25T04:15:34.101Z,0
2017-12-25T04:16:36.518Z,0
2017-12-25T04:17:38.929Z,0
2017-12-25T04:18:41.347Z,0
2017-12-25T04:19:43.775Z,0
2017-12-25T04:20:46.187Z,0
2017-12-25T04:21:48.612Z,0
2017-12-25T04:22:51.030Z,0
2017-12-25T04:23:53.454Z,0
2017-12-25T04:24:55.857Z,0
2017-12-25T04:25:58.272Z,0
2017-12-25T04:27:00.980Z,0
2017-12-25T04:28:03.394Z,0
2017-12-25T04:29:05.810Z,0
2017-12-25T04:30:08.226Z,0
2017-12-25T04:31:10.645Z,0
2017-12-25T04:32:13.059Z,0
2017-12-25T04:33:15.477Z,0
2017-12-25T04:34:17.905Z,0
2017-12-25T04:35:20.327Z,0
2017-12-25T04:36:22.735Z,0
2017-12-25T04:37:25.157Z,0
2017-12-25T04:38:27.573Z,0
2017-12-25T04:39:30.277Z,0
2017-12-25T04:40:32.686Z,0
2017-12-25T04:41:35.099Z,0
2017-12-25T04:42:37.518Z,0
2017-12-25T04:43:39.947Z,0
2017-12-25T04:44:42.344Z,0
2017-12-25T04:45:44.776Z,0
2017-12-25T04:46:47.245Z,0
2017-12-25T04:47:49.613Z,0
2017-12-25T04:48:52.030Z,0
2017-12-25T04:49:54.440Z,0
2017-12-25T04:50:56.862Z,0
2017-12-25T04:51:59.288Z,0
2017-12-25T04:53:01.682Z,0
2017-12-25T04:54:04.099Z,0
2017-12-25T04:55:06.511Z,0
2017-12-25T04:56:08.933Z,0
2017-12-25T04:57:11.350Z,0
2017-12-25T04:58:14.051Z,0
2017-12-25T04:59:16.464Z,0
2017-12-25T05:00:18.884Z,0
2017-12-25T05:01:21.295Z,0
2017-12-25T05:02:23.714Z,0
2017-12-25T05:03:26.125Z,0
2017-12-25T05:04:28.540Z,0
2017-12-25T05:05:30.956Z,0
2017-12-25T05:06:33.651Z,0
2017-12-25T05:07:36.080Z,0
2017-12-25T05:08:38.841Z,0
2017-12-25T05:09:41.237Z,0
2017-12-25T05:10:43.658Z,0
2017-12-25T05:11:46.081Z,0
2017-12-25T05:12:48.503Z,0
2017-12-25T05:13:51.514Z,0
2017-12-25T05:14:54.219Z,0
2017-12-25T05:15:56.923Z,0
2017-12-25T05:16:59.347Z,0
2017-12-25T05:18:02.051Z,0
2017-12-25T05:19:04.467Z,0
2017-12-25T05:20:06.875Z,0
2017-12-25T05:21:09.308Z,0
2017-12-25T05:22:11.732Z,0
2017-12-25T05:23:14.149Z,0
2017-12-25T05:24:16.558Z,0
2017-12-25T05:25:18.975Z,0
2017-12-25T05:26:21.430Z,0
2017-12-25T05:27:24.425Z,0
2017-12-25T05:28:27.128Z,0
2017-12-25T05:29:29.552Z,0
2017-12-25T05:30:31.974Z,0
2017-12-25T05:31:34.388Z,0
2017-12-25T05:32:36.798Z,0
2017-12-25T05:33:39.229Z,0
2017-12-25T05:34:41.668Z,0
2017-12-25T05:35:44.073Z,0
2017-12-25T05:36:46.488Z,0
2017-12-25T05:37:48.913Z,0
2017-12-25T05:38:51.324Z,0
2017-12-25T05:39:53.750Z,0
2017-12-25T05:40:56.471Z,0
2017-12-25T05:41:58.879Z,0
2017-12-25T05:43:01.311Z,0
2017-12-25T05:44:03.711Z,0
2017-12-25T05:45:06.147Z,0
2017-12-25T05:46:08.576Z,0
2017-12-25T05:47:11.005Z,0
2017-12-25T05:48:13.696Z,0
2017-12-25T05:49:16.112Z,0
2017-12-25T05:50:18.523Z,0
2017-12-25T05:51:20.955Z,0
2017-12-25T05:52:23.640Z,0
2017-12-25T05:53:26.065Z,0
2017-12-25T05:54:28.487Z,0
2017-12-25T05:55:30.897Z,0
2017-12-25T05:56:33.331Z,0
2017-12-25T05:57:35.754Z,0
2017-12-25T05:58:38.464Z,0
2017-12-25T05:59:40.888Z,0
2017-12-25T06:00:43.299Z,0
2017-12-25T06:01:45.710Z,0
2017-12-25T06:02:48.123Z,0
2017-12-25T06:03:50.824Z,0
2017-12-25T06:04:53.268Z,0
2017-12-25T06:05:55.682Z,0
2017-12-25T06:06:58.101Z,0
2017-12-25T06:08:00.528Z,0
2017-12-25T06:09:02.943Z,0
2017-12-25T06:10:05.374Z,0
2017-12-25T06:11:08.088Z,0
2017-12-25T06:12:10.506Z,0
2017-12-25T06:13:12.919Z,0
2017-12-25T06:14:15.366Z,0
2017-12-25T06:15:17.769Z,0
2017-12-25T06:16:20.222Z,0
2017-12-25T06:17:22.923Z,0
2017-12-25T06:18:25.326Z,0
2017-12-25T06:19:27.748Z,0
2017-12-25T06:20:30.163Z,0
2017-12-25T06:21:32.891Z,0
2017-12-25T06:22:35.302Z,0
2017-12-25T06:23:37.713Z,0
2017-12-25T06:24:40.127Z,0
2017-12-25T06:25:42.554Z,0
2017-12-25T06:26:44.968Z,0
2017-12-25T06:27:47.374Z,0
2017-12-25T06:28:49.793Z,0
2017-12-25T06:29:52.495Z,0
2017-12-25T06:30:55.190Z,0
2017-12-25T06:31:57.603Z,0
2017-12-25T06:33:00.033Z,0
2017-12-25T06:34:02.444Z,0
2017-12-25T06:35:04.852Z,0
2017-12-25T06:36:07.269Z,0
2017-12-25T06:37:09.965Z,0
2017-12-25T06:38:12.380Z,0
2017-12-25T06:39:14.797Z,0
2017-12-25T06:40:17.207Z,0
2017-12-25T06:41:19.620Z,0
2017-12-25T06:42:22.052Z,0
2017-12-25T06:43:24.463Z,0
2017-12-25T06:44:26.866Z,0
2017-12-25T06:45:29.280Z,0
2017-12-25T06:46:31.690Z,0
2017-12-25T06:47:34.113Z,0
2017-12-25T06:48:36.533Z,0
2017-12-25T06:49:38.930Z,0
2017-12-25T06:50:41.357Z,0
2017-12-25T06:51:43.778Z,0
2017-12-25T06:52:46.188Z,0
2017-12-25T06:53:48.614Z,0
2017-12-25T06:54:51.023Z,0
2017-12-25T06:55:53.435Z,0
2017-12-25T06:56:55.858Z,4
2017-12-25T06:57:58.268Z,4
2017-12-25T06:59:00.682Z,0
2017-12-25T07:00:03.092Z,0
2017-12-25T07:01:05.523Z,0
2017-12-25T07:02:07.937Z,4
2017-12-25T07:03:10.352Z,4
2017-12-25T07:04:12.776Z,4
2017-12-25T07:05:15.184Z,4
2017-12-25T07:06:17.608Z,4
2017-12-25T07:07:20.317Z,4
2017-12-25T07:08:22.761Z,8
2017-12-25T07:09:25.752Z,4
2017-12-25T07:10:28.162Z,8
2017-12-25T07:11:31.197Z,8
2017-12-25T07:12:34.309Z,8
2017-12-25T07:13:37.017Z,12
2017-12-25T07:14:39.442Z,16
2017-12-25T07:15:41.849Z,12
2017-12-25T07:16:44.264Z,20
2017-12-25T07:17:46.703Z,20
2017-12-25T07:18:49.103Z,28
2017-12-25T07:19:51.811Z,40
2017-12-25T07:20:54.233Z,40
2017-12-25T07:21:56.646Z,44
2017-12-25T07:22:59.074Z,36
2017-12-25T07:24:01.495Z,36
2017-12-25T07:25:03.899Z,48
2017-12-25T07:26:06.327Z,72
2017-12-25T07:27:08.738Z,100
2017-12-25T07:28:11.442Z,96
2017-12-25T07:29:13.851Z,76
2017-12-25T07:30:16.290Z,76
2017-12-25T07:31:18.712Z,72
2017-12-25T07:32:21.119Z,72
2017-12-25T07:33:23.542Z,64
2017-12-25T07:34:25.955Z,80
2017-12-25T07:35:28.963Z,80
2017-12-25T07:36:31.379Z,80
2017-12-25T07:37:33.779Z,84
2017-12-25T07:38:36.480Z,96
2017-12-25T07:39:38.904Z,116
2017-12-25T07:40:41.330Z,116
2017-12-25T07:41:43.748Z,132
2017-12-25T07:42:46.460Z,152
2017-12-25T07:43:48.875Z,152
2017-12-25T07:44:51.300Z,176
2017-12-25T07:45:53.755Z,192
2017-12-25T07:46:56.171Z,240
2017-12-25T07:47:58.904Z,228
2017-12-25T07:49:01.330Z,316
2017-12-25T07:50:03.749Z,380
2017-12-25T07:51:06.206Z,432
2017-12-25T07:52:08.622Z,420
2017-12-25T07:53:11.072Z,444
2017-12-25T07:54:13.480Z,432
2017-12-25T07:55:16.467Z,372
2017-12-25T07:56:18.884Z,320
2017-12-25T07:57:21.593Z,272
2017-12-25T07:58:24.011Z,292
2017-12-25T07:59:26.423Z,404
2017-12-25T08:00:28.850Z,492
2017-12-25T08:01:31.394Z,576
2017-12-25T08:02:33.760Z,620
2017-12-25T08:03:36.162Z,740
2017-12-25T08:04:38.589Z,840
2017-12-25T08:05:40.994Z,768
2017-12-25T08:06:43.415Z,676
2017-12-25T08:07:45.835Z,700
2017-12-25T08:08:48.251Z,616
2017-12-25T08:09:50.668Z,732
2017-12-25T08:10:53.100Z,688
2017-12-25T08:11:55.508Z,664
2017-12-25T08:12:58.227Z,704
2017-12-25T08:14:00.643Z,840
2017-12-25T08:15:03.335Z,784
2017-12-25T08:16:06.039Z,744
2017-12-25T08:17:08.470Z,868
2017-12-25T08:18:11.896Z,824
2017-12-25T08:19:14.311Z,876
2017-12-25T08:20:16.722Z,756
2017-12-25T08:21:19.135Z,792
2017-12-25T08:22:22.523Z,852
2017-12-25T08:23:30.913Z,1016
2017-12-25T08:24:38.883Z,1008
2017-12-25T08:25:47.416Z,1336
2017-12-25T08:26:51.926Z,1096
2017-12-25T08:27:59.675Z,1056
2017-12-25T08:29:05.723Z,1000
2017-12-25T08:30:08.136Z,1208
2017-12-25T08:31:10.549Z,888
2017-12-25T08:32:12.969Z,936
2017-12-25T08:33:15.386Z,936
2017-12-25T08:34:17.799Z,1168
2017-12-25T08:35:20.221Z,1280
2017-12-25T08:36:22.912Z,1132
2017-12-25T08:37:25.345Z,980
2017-12-25T08:38:27.764Z,1148
2017-12-25T08:39:30.176Z,1252
2017-12-25T08:40:32.930Z,1004
2017-12-25T08:41:36.251Z,912
2017-12-25T08:42:38.675Z,1244
2017-12-25T08:43:41.376Z,1232
2017-12-25T08:44:43.824Z,1252
2017-12-25T08:45:46.280Z,1524
2017-12-25T08:46:48.699Z,1332
2017-12-25T08:47:51.124Z,992
2017-12-25T08:48:53.869Z,964
2017-12-25T08:49:57.317Z,1236
2017-12-25T08:50:59.726Z,1564
2017-12-25T08:52:02.441Z,1492
2017-12-25T08:53:04.859Z,1852
2017-12-25T08:54:07.572Z,1540
2017-12-25T08:55:09.981Z,1616
2017-12-25T08:56:12.420Z,1556
2017-12-25T08:57:15.036Z,1796
2017-12-25T08:58:17.826Z,1776
2017-12-25T08:59:21.335Z,1952
2017-12-25T09:00:23.750Z,2244
2017-12-25T09:01:26.161Z,2020
2017-12-25T09:02:28.578Z,2236
2017-12-25T09:03:31.000Z,2288
2017-12-25T09:04:33.410Z,2496
2017-12-25T09:05:35.826Z,2184
2017-12-25T09:06:38.522Z,2412
2017-12-25T09:07:41.146Z,2184
2017-12-25T09:08:43.561Z,2248
2017-12-25T09:09:45.987Z,1988
2017-12-25T09:10:48.388Z,1804
2017-12-25T09:11:50.821Z,2088
2017-12-25T09:12:53.224Z,1940
2017-12-25T09:13:55.677Z,1748
2017-12-25T09:14:58.089Z,1780
2017-12-25T09:16:00.511Z,1840
2017-12-25T09:17:02.930Z,1844
2017-12-25T09:18:05.343Z,1884
2017-12-25T09:19:08.359Z,1712
2017-12-25T09:20:10.789Z,1352
2017-12-25T09:21:13.200Z,1888
2017-12-25T09:22:15.618Z,1572
2017-12-25T09:23:18.315Z,1584
2017-12-25T09:24:20.745Z,2084
2017-12-25T09:25:23.164Z,2048
2017-12-25T09:26:25.609Z,2032
2017-12-25T09:27:28.058Z,2148
2017-12-25T09:28:30.508Z,1616
2017-12-25T09:29:32.945Z,1884
2017-12-25T09:30:35.407Z,1888
2017-12-25T09:31:37.842Z,1812
2017-12-25T09:32:40.298Z,2084
2017-12-25T09:33:42.731Z,2056
2017-12-25T09:34:45.166Z,2220
2017-12-25T09:35:47.608Z,2152
2017-12-25T09:36:50.352Z,1864
2017-12-25T09:37:52.773Z,1944
2017-12-25T09:38:55.220Z,2692
2017-12-25T09:39:57.938Z,2432
2017-12-25T09:41:00.666Z,1748
2017-12-25T09:42:03.113Z,1536
2017-12-25T09:43:05.859Z,1948
2017-12-25T09:44:08.298Z,2248
2017-12-25T09:45:10.746Z,2300
2017-12-25T09:46:13.171Z,1964
2017-12-25T09:47:15.616Z,2400
2017-12-25T09:48:18.042Z,2304
2017-12-25T09:49:20.464Z,1852
2017-12-25T09:50:22.899Z,1576
2017-12-25T09:51:25.633Z,2092
2017-12-25T09:52:28.362Z,2456
2017-12-25T09:53:30.810Z,2844
2017-12-25T09:54:33.272Z,2528
2017-12-25T09:55:35.721Z,3592
2017-12-25T09:56:38.154Z,4040
2017-12-25T09:57:40.872Z,3288
2017-12-25T09:58:43.616Z,2704
2017-12-25T09:59:46.358Z,2408
2017-12-25T10:00:48.798Z,2592
2017-12-25T10:01:51.247Z,3172
2017-12-25T10:02:53.971Z,3624
2017-12-25T10:03:56.407Z,3268
2017-12-25T10:04:58.840Z,2792
2017-12-25T10:06:01.277Z,2604
2017-12-25T10:07:03.711Z,2800
2017-12-25T10:08:06.141Z,2816
2017-12-25T10:09:08.589Z,2520
2017-12-25T10:10:11.040Z,2304
2017-12-25T10:11:13.769Z,2504
2017-12-25T10:12:16.192Z,2824
2017-12-25T10:13:18.623Z,2484
2017-12-25T10:14:21.041Z,2472
2017-12-25T10:15:23.481Z,3100
2017-12-25T10:16:25.923Z,3432
2017-12-25T10:17:28.386Z,3408
2017-12-25T10:18:31.119Z,3136
2017-12-25T10:19:33.568Z,2404
2017-12-25T10:20:36.020Z,2528
2017-12-25T10:21:38.453Z,2124
2017-12-25T10:22:40.920Z,2088
2017-12-25T10:23:43.364Z,2060
2017-12-25T10:24:45.801Z,2356
2017-12-25T10:25:48.246Z,2700
2017-12-25T10:26:50.696Z,2752
2017-12-25T10:27:53.114Z,2332
2017-12-25T10:28:55.854Z,2048
2017-12-25T10:29:58.424Z,2980
2017-12-25T10:31:00.946Z,3208
2017-12-25T10:32:03.433Z,2828
2017-12-25T10:33:06.174Z,2240
2017-12-25T10:34:08.741Z,1800
2017-12-25T10:35:15.710Z,2240
2017-12-25T10:36:18.566Z,2472
2017-12-25T10:37:22.441Z,2416
2017-12-25T10:38:25.068Z,2216
2017-12-25T10:39:27.590Z,2672
2017-12-25T10:40:30.054Z,2496
2017-12-25T10:41:32.514Z,2012
2017-12-25T10:42:34.960Z,2532
2017-12-25T10:43:37.398Z,2048
2017-12-25T10:44:39.833Z,2208
2017-12-25T10:45:42.271Z,2316
2017-12-25T10:46:44.723Z,1960
2017-12-25T10:47:47.179Z,1692
2017-12-25T10:48:49.602Z,2000
2017-12-25T10:49:52.052Z,1740
2017-12-25T10:50:54.480Z,1668
2017-12-25T10:51:56.916Z,1360
2017-12-25T10:52:59.354Z,1380
2017-12-25T10:54:01.786Z,1656
2017-12-25T10:55:04.238Z,1556
2017-12-25T10:56:06.668Z,1592
2017-12-25T10:57:09.358Z,1432
2017-12-25T10:58:11.781Z,1744
2017-12-25T10:59:14.191Z,1492
2017-12-25T11:00:16.616Z,1508
2017-12-25T11:01:19.038Z,1656
2017-12-25T11:02:21.716Z,1620
2017-12-25T11:03:24.142Z,1336
2017-12-25T11:04:26.564Z,1496
2017-12-25T11:05:28.987Z,1888
2017-12-25T11:06:31.687Z,2280
2017-12-25T11:07:34.108Z,2460
2017-12-25T11:08:36.515Z,2288
2017-12-25T11:09:38.944Z,2092
2017-12-25T11:10:41.364Z,1676
2017-12-25T11:11:44.059Z,1964
2017-12-25T11:12:46.474Z,2536
2017-12-25T11:13:48.892Z,2116
2017-12-25T11:14:51.321Z,2012
2017-12-25T11:15:54.025Z,2108
2017-12-25T11:16:56.438Z,1656
2017-12-25T11:17:59.142Z,2120
2017-12-25T11:19:01.561Z,2200
2017-12-25T11:20:04.006Z,2160
2017-12-25T11:21:06.396Z,2376
2017-12-25T11:22:08.812Z,2264
2017-12-25T11:23:11.224Z,2264
2017-12-25T11:24:13.657Z,2272
2017-12-25T11:25:16.072Z,2300
2017-12-25T11:26:18.470Z,2552
2017-12-25T11:27:20.884Z,2324
2017-12-25T11:28:23.306Z,2276
2017-12-25T11:29:25.718Z,2152
2017-12-25T11:30:28.138Z,2328
2017-12-25T11:31:30.549Z,2088
2017-12-25T11:32:32.964Z,1868
2017-12-25T11:33:35.706Z,2116
2017-12-25T11:34:38.152Z,2184
2017-12-25T11:35:40.562Z,2140
2017-12-25T11:36:42.976Z,1740
2017-12-25T11:37:45.399Z,1708
2017-12-25T11:38:47.815Z,1508
2017-12-25T11:39:50.240Z,1720
2017-12-25T11:40:52.646Z,2016
2017-12-25T11:41:55.356Z,2100
2017-12-25T11:42:57.786Z,1488
2017-12-25T11:44:00.193Z,1868
2017-12-25T11:45:02.639Z,2032
2017-12-25T11:46:05.024Z,1920
2017-12-25T11:47:07.435Z,1680
2017-12-25T11:48:09.868Z,1636
2017-12-25T11:49:12.290Z,2404
2017-12-25T11:50:14.692Z,1832
2017-12-25T11:51:17.123Z,1436
2017-12-25T11:52:19.537Z,1224
2017-12-25T11:53:21.947Z,1520
2017-12-25T11:54:24.646Z,2048
2017-12-25T11:55:27.067Z,2324
2017-12-25T11:56:29.484Z,2436
2017-12-25T11:57:31.895Z,2644
2017-12-25T11:58:34.306Z,2836
2017-12-25T11:59:36.736Z,2856
2017-12-25T12:00:39.145Z,2556
2017-12-25T12:01:41.567Z,2484
2017-12-25T12:02:43.977Z,3136
2017-12-25T12:03:46.392Z,3460
2017-12-25T12:04:49.091Z,2624
2017-12-25T12:05:51.505Z,2644
2017-12-25T12:06:54.194Z,3316
2017-12-25T12:07:56.621Z,2648
2017-12-25T12:08:59.034Z,2396
2017-12-25T12:10:01.452Z,2264
2017-12-25T12:11:04.463Z,2392
2017-12-25T12:12:06.875Z,2264
2017-12-25T12:13:09.577Z,2352
2017-12-25T12:14:12.004Z,2596
2017-12-25T12:15:14.694Z,2712
2017-12-25T12:16:17.108Z,2528
2017-12-25T12:17:19.809Z,2036
2017-12-25T12:18:22.229Z,1816
2017-12-25T12:19:24.644Z,1820
2017-12-25T12:20:28.483Z,1820
2017-12-25T12:21:30.897Z,1544
2017-12-25T12:22:33.384Z,1528
2017-12-25T12:23:35.844Z,2076
2017-12-25T12:24:38.221Z,1500
2017-12-25T12:25:40.647Z,1744
2017-12-25T12:26:43.348Z,1312
2017-12-25T12:27:46.052Z,1340
2017-12-25T12:28:48.477Z,1392
2017-12-25T12:29:50.891Z,1424
2017-12-25T12:30:53.354Z,1104
2017-12-25T12:31:56.635Z,1312
2017-12-25T12:32:59.645Z,908
2017-12-25T12:34:02.384Z,1020
2017-12-25T12:35:06.146Z,1080
2017-12-25T12:36:12.808Z,992
2017-12-25T12:37:16.507Z,1040
2017-12-25T12:38:22.173Z,1184
2017-12-25T12:39:24.580Z,1016
2017-12-25T12:40:27.010Z,792
2017-12-25T12:41:29.697Z,1196
2017-12-25T12:42:32.666Z,1092
2017-12-25T12:43:35.537Z,1092
2017-12-25T12:44:38.169Z,1236
2017-12-25T12:45:40.757Z,1236
2017-12-25T12:46:43.226Z,1364
2017-12-25T12:47:45.945Z,1464
2017-12-25T12:48:48.607Z,1384
2017-12-25T12:49:51.231Z,1644
2017-12-25T12:50:53.649Z,1716
2017-12-25T12:51:56.069Z,1528
2017-12-25T12:52:58.486Z,1972
2017-12-25T12:54:01.182Z,1468
2017-12-25T12:55:03.595Z,1436
2017-12-25T12:56:06.020Z,1712
2017-12-25T12:57:08.447Z,1204
2017-12-25T12:58:11.146Z,1336
2017-12-25T12:59:13.557Z,1728
2017-12-25T13:00:15.988Z,1468
2017-12-25T13:01:18.500Z,1500
2017-12-25T13:02:21.011Z,1780
2017-12-25T13:03:23.541Z,1460
2017-12-25T13:04:26.032Z,1848
2017-12-25T13:05:28.532Z,2056
2017-12-25T13:06:31.070Z,1956
2017-12-25T13:07:33.567Z,1856
2017-12-25T13:08:36.359Z,2036
2017-12-25T13:09:38.879Z,2000
2017-12-25T13:10:41.402Z,1920
2017-12-25T13:11:43.934Z,1592
2017-12-25T13:12:46.437Z,1704
2017-12-25T13:13:48.952Z,1524
2017-12-25T13:14:51.737Z,1660
2017-12-25T13:15:54.288Z,1664
2017-12-25T13:16:58.314Z,1352
2017-12-25T13:18:01.138Z,1176
2017-12-25T13:19:03.636Z,1328
2017-12-25T13:20:06.177Z,1104
2017-12-25T13:21:08.685Z,1180
2017-12-25T13:22:11.211Z,1108
2017-12-25T13:23:13.995Z,1060
2017-12-25T13:24:16.539Z,1124
2017-12-25T13:25:19.033Z,1244
2017-12-25T13:26:21.550Z,1148
2017-12-25T13:27:24.044Z,1308
2017-12-25T13:28:26.565Z,1164
2017-12-25T13:29:29.079Z,1144
2017-12-25T13:30:31.568Z,1132
2017-12-25T13:31:34.078Z,1172
2017-12-25T13:32:36.568Z,1080
2017-12-25T13:33:39.080Z,1204
2017-12-25T13:34:41.920Z,1356
2017-12-25T13:35:44.428Z,1416
2017-12-25T13:36:46.930Z,1460
2017-12-25T13:37:49.455Z,1172
2017-12-25T13:38:51.959Z,1228
2017-12-25T13:39:54.460Z,1028
2017-12-25T13:40:57.007Z,988
2017-12-25T13:41:59.505Z,1120
2017-12-25T13:43:02.388Z,968
2017-12-25T13:44:05.170Z,780
2017-12-25T13:45:07.672Z,880
2017-12-25T13:46:10.421Z,800
2017-12-25T13:47:12.926Z,740
2017-12-25T13:48:15.924Z,912
2017-12-25T13:49:18.440Z,824
2017-12-25T13:50:21.195Z,800
2017-12-25T13:51:23.770Z,964
2017-12-25T13:52:26.283Z,980
2017-12-25T13:53:29.085Z,820
2017-12-25T13:54:31.865Z,1068
2017-12-25T13:55:34.375Z,1212
2017-12-25T13:56:36.886Z,1092
2017-12-25T13:57:39.435Z,960
2017-12-25T13:58:41.939Z,968
2017-12-25T13:59:44.771Z,1012
2017-12-25T14:00:47.265Z,1008
2017-12-25T14:01:49.786Z,1308
2017-12-25T14:02:52.308Z,1360
2017-12-25T14:03:54.782Z,1192
2017-12-25T14:04:57.325Z,1220
2017-12-25T14:05:59.893Z,1236
2017-12-25T14:07:02.384Z,1172
2017-12-25T14:08:05.546Z,1176
2017-12-25T14:09:08.088Z,1212
2017-12-25T14:10:10.651Z,1064
2017-12-25T14:11:13.444Z,1012
2017-12-25T14:12:15.993Z,1104
2017-12-25T14:13:18.492Z,1080
2017-12-25T14:14:20.998Z,920
2017-12-25T14:15:23.783Z,752
2017-12-25T14:16:26.600Z,636
2017-12-25T14:17:29.386Z,652
2017-12-25T14:18:32.191Z,624
2017-12-25T14:19:34.692Z,520
2017-12-25T14:20:37.227Z,496
2017-12-25T14:21:39.715Z,436
2017-12-25T14:22:42.216Z,340
2017-12-25T14:23:44.775Z,360
2017-12-25T14:24:47.277Z,264
2017-12-25T14:25:49.772Z,256
2017-12-25T14:26:52.278Z,260
2017-12-25T14:27:54.779Z,292
2017-12-25T14:28:57.359Z,236
2017-12-25T14:30:01.490Z,232
2017-12-25T14:31:04.011Z,220
2017-12-25T14:32:06.735Z,188
2017-12-25T14:33:10.218Z,192
2017-12-25T14:34:14.384Z,184
2017-12-25T14:35:17.532Z,192
2017-12-25T14:36:20.258Z,184
2017-12-25T14:37:23.573Z,152
2017-12-25T14:38:27.227Z,140
2017-12-25T14:39:30.792Z,144
2017-12-25T14:40:33.757Z,164